Time;durP1;ratioP1;P1;durP2;ratioP2;P2;SDS_P1;SDS_P2;PMS_P1;PMS_P2;Temp;Humidity;BMP_temperature;BMP_pressure;BME280_temperature;BME280_humidity;BME280_pressure;Samples;Min_cycle;Max_cycle;Signal;HPM_P1;HPM_P2
2023/05/31 04:01:00;;;;;;;2.60;1.30;;;18.30;51.80;;;;;;5936522;22;20565;-75
2023/05/31 04:03:27;;;;;;;2.30;1.47;;;18.30;51.50;;;;;;5035788;28;20487;-75
2023/05/31 04:05:54;;;;;;;2.20;1.40;;;18.30;52.00;;;;;;5035810;28;20452;-75
2023/05/31 04:08:20;;;;;;;2.53;1.37;;;18.30;51.40;;;;;;5035680;28;20451;-75
2023/05/31 04:10:47;;;;;;;2.10;1.40;;;18.30;51.50;;;;;;5035560;28;20521;-75
2023/05/31 04:13:14;;;;;;;3.37;1.30;;;18.30;51.30;;;;;;5035602;28;20443;-74
2023/05/31 04:15:40;;;;;;;3.37;1.50;;;18.30;52.00;;;;;;5036188;28;20443;-74
2023/05/31 04:18:08;;;;;;;2.10;1.17;;;18.30;51.80;;;;;;5035478;28;20447;-75
2023/05/31 04:20:35;;;;;;;2.30;1.53;;;18.30;51.60;;;;;;5035335;28;20443;-75
2023/05/31 04:23:01;;;;;;;2.23;1.60;;;18.30;51.30;;;;;;5035349;28;20475;-75
2023/05/31 04:25:28;;;;;;;2.40;1.20;;;18.30;51.60;;;;;;5034879;28;20566;-75
2023/05/31 04:27:56;;;;;;;2.63;1.10;;;18.30;51.60;;;;;;5035292;28;20474;-74
2023/05/31 04:30:23;;;;;;;2.20;1.20;;;18.40;51.90;;;;;;5035172;28;20456;-75
2023/05/31 04:32:51;;;;;;;2.00;1.10;;;18.40;51.80;;;;;;5035170;28;20501;-75
2023/05/31 04:35:19;;;;;;;2.70;1.43;;;18.50;51.70;;;;;;5035117;28;20459;-75
2023/05/31 04:37:48;;;;;;;2.70;1.07;;;18.50;51.60;;;;;;5035125;28;20821;-75
2023/05/31 04:40:14;;;;;;;3.70;1.50;;;18.60;51.70;;;;;;5035021;28;20455;-75
2023/05/31 04:42:42;;;;;;;2.37;1.23;;;18.70;51.50;;;;;;5034589;28;21055;-75
2023/05/31 04:45:10;;;;;;;4.43;1.37;;;18.80;51.20;;;;;;5035047;28;20480;-75
2023/05/31 04:47:37;;;;;;;2.20;1.50;;;18.90;51.40;;;;;;5034963;28;20861;-75
2023/05/31 04:50:04;;;;;;;3.00;1.43;;;18.90;51.40;;;;;;5034914;28;20451;-75
2023/05/31 04:52:32;;;;;;;2.70;1.40;;;19.00;51.00;;;;;;5034887;28;20546;-75
2023/05/31 04:54:59;;;;;;;2.93;1.10;;;19.00;50.40;;;;;;5034782;28;20447;-75
2023/05/31 04:57:27;;;;;;;5.40;1.50;;;19.00;50.90;;;;;;5035028;28;20913;-75
2023/05/31 04:59:56;;;;;;;3.60;1.53;;;19.00;50.90;;;;;;5034687;28;20478;-75
2023/05/31 05:02:23;;;;;;;2.40;1.20;;;19.10;50.90;;;;;;5034252;28;20562;-75
2023/05/31 05:04:49;;;;;;;3.00;1.50;;;19.20;51.80;;;;;;5034551;28;20451;-75
2023/05/31 05:07:17;;;;;;;2.10;1.03;;;19.30;51.00;;;;;;5034549;28;20443;-75
2023/05/31 05:09:45;;;;;;;2.20;1.20;;;19.30;50.40;;;;;;5034202;28;20826;-75
2023/05/31 05:12:12;;;;;;;2.40;1.37;;;19.40;50.60;;;;;;5034387;28;20471;-75
2023/05/31 05:14:39;;;;;;;1.90;1.10;;;19.40;51.00;;;;;;5034454;28;20470;-75
2023/05/31 05:17:06;;;;;;;1.87;1.13;;;19.60;51.00;;;;;;5034339;28;20547;-75
2023/05/31 05:19:33;;;;;;;2.83;1.30;;;19.70;51.50;;;;;;5034347;28;20451;-75
2023/05/31 05:21:59;;;;;;;3.10;1.20;;;19.80;50.70;;;;;;5034213;28;20904;-75
2023/05/31 05:24:26;;;;;;;3.00;1.37;;;19.80;50.40;;;;;;5034166;28;20533;-75
2023/05/31 05:26:54;;;;;;;2.97;1.63;;;19.80;50.60;;;;;;5034208;28;20534;-74
2023/05/31 05:29:21;;;;;;;2.20;1.00;;;19.70;50.20;;;;;;5034158;28;20451;-75
2023/05/31 05:31:48;;;;;;;2.20;1.30;;;19.80;50.30;;;;;;5033970;28;20529;-75
2023/05/31 05:34:15;;;;;;;2.17;1.13;;;20.00;50.50;;;;;;5034021;28;20444;-75
2023/05/31 05:36:41;;;;;;;5.60;1.40;;;20.00;49.60;;;;;;5033764;28;20497;-75
2023/05/31 05:39:08;;;;;;;2.57;1.27;;;19.90;50.50;;;;;;5033473;28;20479;-75
2023/05/31 05:41:35;;;;;;;3.90;1.80;;;19.90;51.10;;;;;;5033983;28;20502;-75
2023/05/31 05:44:03;;;;;;;2.20;1.40;;;19.80;50.80;;;;;;5033540;28;20996;-75
2023/05/31 05:46:30;;;;;;;2.50;1.30;;;19.90;51.40;;;;;;5033913;28;20488;-75
2023/05/31 05:48:56;;;;;;;2.20;1.47;;;19.80;49.60;;;;;;5034115;28;20443;-74
2023/05/31 05:51:23;;;;;;;3.70;1.67;;;19.80;50.20;;;;;;5033716;28;20479;-75
2023/05/31 05:53:50;;;;;;;3.43;1.60;;;19.70;50.70;;;;;;5033731;28;20810;-75
2023/05/31 05:56:18;;;;;;;3.03;1.10;;;19.80;50.20;;;;;;5033690;28;20442;-74
2023/05/31 05:58:46;;;;;;;2.30;1.20;;;19.80;50.80;;;;;;5033376;28;20451;-73
2023/05/31 06:01:18;;;;;;;2.03;1.27;;;19.80;50.70;;;;;;5033079;28;21014;-74
2023/05/31 06:03:46;;;;;;;1.90;1.10;;;19.90;51.00;;;;;;5033650;28;20467;-74
2023/05/31 06:06:13;;;;;;;2.80;1.60;;;19.70;50.60;;;;;;5033244;28;20442;-73
2023/05/31 06:08:40;;;;;;;2.40;1.40;;;19.70;50.50;;;;;;5033535;28;20505;-73
2023/05/31 06:11:06;;;;;;;4.07;1.37;;;19.60;50.00;;;;;;5033748;28;20530;-74
2023/05/31 06:13:33;;;;;;;2.20;1.20;;;19.70;50.30;;;;;;5033399;28;20447;-73
2023/05/31 06:16:00;;;;;;;2.57;1.47;;;19.80;50.80;;;;;;5033428;28;20443;-73
2023/05/31 06:18:28;;;;;;;2.10;1.20;;;19.90;51.20;;;;;;5033425;28;20510;-73
2023/05/31 06:20:55;;;;;;;2.10;1.17;;;20.10;51.00;;;;;;5033319;28;20467;-74
2023/05/31 06:23:21;;;;;;;2.23;1.53;;;20.20;50.00;;;;;;5033266;28;20482;-73
2023/05/31 06:25:48;;;;;;;3.30;1.40;;;20.20;49.20;;;;;;5033376;28;20505;-73
2023/05/31 06:28:15;;;;;;;3.13;1.50;;;20.00;49.60;;;;;;5033198;28;20446;-73
2023/05/31 06:30:42;;;;;;;2.50;1.27;;;20.00;50.30;;;;;;5032894;28;20972;-73
2023/05/31 06:33:09;;;;;;;4.07;1.53;;;20.10;49.60;;;;;;5033249;28;20527;-73
2023/05/31 06:35:37;;;;;;;2.63;1.20;;;20.20;50.10;;;;;;5033108;28;20515;-74
2023/05/31 06:38:03;;;;;;;3.33;1.40;;;20.40;49.70;;;;;;5033228;28;20447;-74
2023/05/31 06:40:30;;;;;;;2.57;1.47;;;20.30;50.10;;;;;;5032831;28;20956;-74
2023/05/31 06:42:57;;;;;;;2.77;1.40;;;20.40;50.50;;;;;;5033508;28;20890;-74
2023/05/31 06:45:25;;;;;;;3.20;1.50;;;20.30;49.40;;;;;;5033073;28;20451;-74
2023/05/31 06:47:51;;;;;;;2.80;1.30;;;20.40;49.80;;;;;;5032974;28;20480;-74
2023/05/31 06:50:18;;;;;;;2.00;1.20;;;20.40;50.30;;;;;;5036610;28;20448;-74
2023/05/31 06:52:46;;;;;;;4.00;1.97;;;20.40;50.60;;;;;;5037084;28;20467;-74
2023/05/31 06:55:12;;;;;;;2.70;1.40;;;20.40;50.30;;;;;;5036841;28;20447;-74
2023/05/31 06:57:39;;;;;;;2.30;1.43;;;20.40;49.60;;;;;;5036634;28;20870;-74
2023/05/31 07:00:08;;;;;;;2.63;1.50;;;20.60;50.40;;;;;;5036911;28;20538;-73
2023/05/31 07:02:34;;;;;;;2.73;1.43;;;20.50;49.90;;;;;;5036433;28;20571;-73
2023/05/31 07:05:01;;;;;;;4.80;1.57;;;20.60;50.10;;;;;;5036769;28;20489;-74
2023/05/31 07:07:28;;;;;;;4.57;1.93;;;20.80;50.60;;;;;;5036723;28;20474;-73
2023/05/31 07:09:56;;;;;;;3.13;1.67;;;21.10;50.60;;;;;;5036368;28;20999;-74
2023/05/31 07:12:23;;;;;;;2.27;1.47;;;21.10;50.20;;;;;;5036573;28;20471;-74
2023/05/31 07:14:49;;;;;;;2.53;1.60;;;21.40;49.10;;;;;;5036622;28;20443;-74
2023/05/31 07:17:16;;;;;;;3.30;1.40;;;21.40;47.90;;;;;;5036955;28;20458;-74
2023/05/31 07:19:46;;;;;;;3.63;1.30;;;21.10;49.70;;;;;;5036281;28;20940;-75
2023/05/31 07:22:14;;;;;;;2.80;1.33;;;21.10;50.00;;;;;;5036149;28;20816;-75
2023/05/31 07:24:41;;;;;;;4.00;2.00;;;21.20;49.20;;;;;;5036385;28;20827;-74
2023/05/31 07:27:10;;;;;;;3.07;1.40;;;21.30;49.40;;;;;;5036443;28;20517;-75
2023/05/31 07:29:36;;;;;;;2.00;1.20;;;21.20;49.80;;;;;;5036356;28;20455;-74
2023/05/31 07:32:03;;;;;;;5.20;1.70;;;21.30;51.00;;;;;;5036163;28;20467;-75
2023/05/31 07:34:30;;;;;;;2.50;1.43;;;21.60;50.40;;;;;;5036320;28;20452;-75
2023/05/31 07:36:57;;;;;;;3.90;1.87;;;21.70;50.50;;;;;;5036162;28;20451;-75
2023/05/31 07:39:24;;;;;;;2.63;1.33;;;21.60;49.80;;;;;;5035876;28;20818;-74
2023/05/31 07:41:52;;;;;;;2.13;1.40;;;21.70;50.40;;;;;;5036017;28;20467;-74
2023/05/31 07:44:21;;;;;;;2.77;1.47;;;22.00;50.30;;;;;;5035974;28;20479;-74
2023/05/31 07:46:48;;;;;;;2.40;1.30;;;22.10;49.20;;;;;;5036158;28;20447;-75
2023/05/31 07:49:14;;;;;;;2.70;1.47;;;22.30;48.00;;;;;;5036153;28;20451;-76
2023/05/31 07:51:41;;;;;;;6.20;1.60;;;22.40;48.60;;;;;;5035932;28;20468;-74
2023/05/31 07:54:08;;;;;;;2.30;1.43;;;22.30;47.90;;;;;;5035989;28;20501;-75
2023/05/31 07:56:34;;;;;;;3.30;1.77;;;21.90;48.00;;;;;;5035584;28;20813;-75
2023/05/31 07:59:01;;;;;;;2.57;1.27;;;21.90;48.30;;;;;;5035793;28;20482;-75
2023/05/31 08:01:29;;;;;;;2.90;1.40;;;22.10;49.10;;;;;;5034419;28;20482;-74
2023/05/31 08:04:05;;;;;;;3.83;1.53;;;22.30;48.60;;;;;;5035611;28;20490;-74
2023/05/31 08:06:32;;;;;;;2.67;1.50;;;22.30;48.70;;;;;;5035762;28;20435;-74
2023/05/31 08:08:59;;;;;;;3.33;1.90;;;22.00;48.70;;;;;;5035670;28;20451;-75
2023/05/31 08:11:26;;;;;;;3.67;1.27;;;22.30;49.00;;;;;;5035623;28;20525;-75
2023/05/31 08:13:53;;;;;;;2.67;1.30;;;22.10;48.00;;;;;;5035236;28;20875;-75
2023/05/31 08:16:19;;;;;;;2.97;1.43;;;22.00;48.70;;;;;;5035427;28;20447;-75
2023/05/31 08:18:48;;;;;;;2.97;1.57;;;22.00;48.90;;;;;;5035519;28;20447;-75
2023/05/31 08:21:15;;;;;;;2.73;1.43;;;22.00;49.50;;;;;;5035378;28;20521;-73
2023/05/31 08:23:43;;;;;;;2.77;1.90;;;22.20;49.80;;;;;;5035105;28;20987;-75
2023/05/31 08:26:09;;;;;;;2.83;1.40;;;22.40;49.30;;;;;;5035935;28;20520;-75
2023/05/31 08:28:36;;;;;;;3.07;1.47;;;22.50;49.00;;;;;;5035313;28;20478;-75
2023/05/31 08:31:03;;;;;;;2.10;1.30;;;22.60;48.40;;;;;;5035169;28;20471;-75
2023/05/31 08:33:31;;;;;;;2.20;1.50;;;22.40;48.60;;;;;;5035522;28;20491;-75
2023/05/31 08:35:59;;;;;;;2.90;1.13;;;22.30;47.50;;;;;;5035158;28;20939;-75
2023/05/31 08:38:26;;;;;;;6.43;2.20;;;22.10;48.70;;;;;;5035777;28;20447;-73
2023/05/31 08:40:53;;;;;;;2.50;1.40;;;22.00;49.70;;;;;;5035691;28;20471;-76
2023/05/31 08:43:22;;;;;;;2.90;1.50;;;22.20;49.80;;;;;;5035260;28;20443;-75
2023/05/31 08:45:51;;;;;;;3.00;1.40;;;22.40;48.60;;;;;;5034857;28;20479;-75
2023/05/31 08:48:22;;;;;;;2.40;1.30;;;22.60;49.40;;;;;;5035131;28;20550;-74
2023/05/31 08:50:49;;;;;;;2.63;1.50;;;23.00;48.90;;;;;;5034825;28;20529;-75
2023/05/31 08:53:19;;;;;;;2.97;1.33;;;23.20;49.20;;;;;;5034829;28;20451;-75
2023/05/31 08:55:48;;;;;;;2.50;1.70;;;23.40;48.00;;;;;;5034825;28;20455;-75
2023/05/31 08:58:15;;;;;;;2.33;1.20;;;23.40;48.70;;;;;;5034836;28;20455;-75
2023/05/31 09:00:42;;;;;;;3.37;1.57;;;23.40;48.00;;;;;;5034466;28;20562;-75
2023/05/31 09:03:10;;;;;;;3.50;1.43;;;23.40;48.80;;;;;;5034938;28;20439;-75
2023/05/31 09:05:37;;;;;;;2.50;1.30;;;23.70;47.30;;;;;;5034922;28;20494;-75
2023/05/31 09:08:05;;;;;;;2.73;1.67;;;23.70;48.10;;;;;;5034807;28;20447;-75
2023/05/31 09:10:33;;;;;;;2.40;1.40;;;23.70;47.80;;;;;;5034475;28;20436;-75
2023/05/31 09:12:59;;;;;;;2.60;1.80;;;23.70;46.30;;;;;;5034654;28;20432;-75
2023/05/31 09:15:27;;;;;;;2.10;1.30;;;23.70;47.00;;;;;;5034896;28;20436;-75
2023/05/31 09:17:56;;;;;;;2.37;1.30;;;23.80;46.40;;;;;;5034323;28;20996;-75
2023/05/31 09:20:31;;;;;;;2.40;1.47;;;23.70;46.10;;;;;;5034251;28;20447;-75
2023/05/31 09:23:03;;;;;;;3.00;1.60;;;23.70;46.30;;;;;;5034253;28;20439;-75
2023/05/31 09:25:42;;;;;;;2.20;1.40;;;23.70;46.40;;;;;;5034225;28;20908;-75
2023/05/31 09:28:09;;;;;;;2.73;1.30;;;23.60;46.80;;;;;;5033879;28;20427;-75
2023/05/31 09:30:36;;;;;;;2.37;1.40;;;23.90;46.40;;;;;;5033803;28;21007;-75
2023/05/31 09:33:02;;;;;;;2.17;1.50;;;24.00;46.90;;;;;;5034032;28;20451;-72
2023/05/31 09:35:29;;;;;;;2.93;1.57;;;24.00;45.00;;;;;;5034070;28;20443;-75
2023/05/31 09:37:56;;;;;;;4.07;1.80;;;24.10;45.50;;;;;;5034056;28;20451;-76
2023/05/31 09:40:24;;;;;;;2.27;1.30;;;23.90;44.20;;;;;;5033656;28;20971;-75
2023/05/31 09:42:54;;;;;;;2.43;1.77;;;23.90;45.80;;;;;;5033904;28;20447;-75
2023/05/31 09:45:21;;;;;;;3.40;1.60;;;24.00;45.20;;;;;;5033824;28;20610;-76
2023/05/31 09:47:49;;;;;;;2.40;1.10;;;24.00;46.10;;;;;;5033846;28;20873;-75
2023/05/31 09:50:18;;;;;;;2.20;1.37;;;24.10;45.00;;;;;;5033931;28;20949;-75
2023/05/31 09:52:46;;;;;;;2.40;1.40;;;24.10;45.10;;;;;;5034000;28;20490;-76
2023/05/31 09:55:14;;;;;;;2.80;1.63;;;24.30;45.20;;;;;;5034773;28;20450;-74
2023/05/31 09:57:41;;;;;;;2.30;1.30;;;24.50;45.00;;;;;;5034173;28;20448;-75
2023/05/31 10:00:15;;;;;;;2.87;1.40;;;24.50;43.70;;;;;;5034301;28;20454;-75
2023/05/31 10:02:43;;;;;;;2.80;1.40;;;24.50;43.10;;;;;;5033722;28;20490;-76
2023/05/31 10:05:11;;;;;;;3.10;1.43;;;24.20;44.40;;;;;;5033930;28;20494;-74
2023/05/31 10:07:39;;;;;;;2.33;1.40;;;24.50;43.60;;;;;;5033944;28;20458;-76
2023/05/31 10:10:07;;;;;;;2.30;1.20;;;24.40;43.80;;;;;;5033704;28;20451;-76
2023/05/31 10:12:39;;;;;;;2.67;1.43;;;24.50;44.50;;;;;;5033233;28;20509;-75
2023/05/31 10:15:11;;;;;;;3.27;1.63;;;24.60;42.70;;;;;;5033981;28;20436;-75
2023/05/31 10:17:43;;;;;;;4.43;1.47;;;24.60;42.40;;;;;;5033073;28;20478;-75
2023/05/31 10:20:12;;;;;;;2.60;1.60;;;24.50;43.10;;;;;;5034158;28;20431;-75
2023/05/31 10:22:44;;;;;;;2.60;1.80;;;24.40;42.60;;;;;;5033216;28;20463;-75
2023/05/31 10:25:18;;;;;;;3.13;1.60;;;24.50;42.90;;;;;;5033117;28;20562;-75
2023/05/31 10:27:46;;;;;;;2.10;1.50;;;24.50;43.80;;;;;;5033246;28;20478;-74
2023/05/31 10:30:15;;;;;;;3.10;1.43;;;24.50;43.30;;;;;;5032899;28;20451;-75
2023/05/31 10:32:46;;;;;;;2.27;1.30;;;24.60;43.50;;;;;;5033085;28;20471;-75
2023/05/31 10:35:12;;;;;;;2.90;1.37;;;24.70;44.60;;;;;;5033603;28;20452;-74
2023/05/31 10:37:41;;;;;;;3.10;1.53;;;24.80;44.00;;;;;;5033094;28;20443;-74
2023/05/31 10:40:14;;;;;;;2.40;1.20;;;24.90;42.80;;;;;;5033117;28;20448;-75
2023/05/31 10:42:48;;;;;;;2.57;1.57;;;24.60;43.90;;;;;;5033070;28;20471;-75
2023/05/31 10:45:21;;;;;;;2.40;1.37;;;24.70;42.90;;;;;;5033001;28;20467;-74
2023/05/31 10:47:56;;;;;;;2.10;1.40;;;24.90;42.60;;;;;;5032683;28;20808;-74
2023/05/31 10:50:25;;;;;;;3.90;1.40;;;24.80;41.40;;;;;;5032906;28;20489;-75
2023/05/31 10:52:52;;;;;;;2.30;1.20;;;24.70;42.70;;;;;;5032900;28;20447;-75
2023/05/31 10:55:22;;;;;;;2.33;1.43;;;24.80;42.50;;;;;;5032895;28;20444;-75
2023/05/31 10:57:53;;;;;;;3.10;1.50;;;24.90;42.90;;;;;;5032644;28;20940;-75
2023/05/31 11:00:22;;;;;;;2.60;1.70;;;24.90;42.70;;;;;;5032888;28;20451;-75
2023/05/31 11:02:51;;;;;;;7.43;1.67;;;25.10;42.90;;;;;;5032442;28;20459;-76
2023/05/31 11:05:22;;;;;;;3.07;1.70;;;25.20;42.50;;;;;;5032987;28;20491;-76
2023/05/31 11:07:49;;;;;;;2.10;1.20;;;25.20;42.60;;;;;;5032845;28;20482;-76
2023/05/31 11:10:27;;;;;;;4.80;1.60;;;25.50;42.90;;;;;;5033083;28;20543;-76
2023/05/31 11:12:57;;;;;;;2.87;1.20;;;25.50;42.30;;;;;;5032977;28;20479;-76
2023/05/31 11:15:39;;;;;;;2.00;1.17;;;25.50;42.80;;;;;;5033203;28;20451;-76
2023/05/31 11:18:09;;;;;;;2.43;1.10;;;25.40;41.20;;;;;;5033521;28;20458;-76
2023/05/31 11:20:35;;;;;;;2.73;1.40;;;25.30;42.60;;;;;;5033053;28;20447;-77
2023/05/31 11:23:29;;;;;;;3.57;1.50;;;25.40;41.90;;;;;;5032875;28;20455;-76
2023/05/31 11:26:10;;;;;;;2.13;1.10;;;25.40;41.60;;;;;;5032657;28;20491;-77
2023/05/31 11:28:55;;;;;;;2.30;1.30;;;25.60;42.20;;;;;;5032846;28;20459;-77
2023/05/31 11:31:55;;;;;;;3.33;1.70;;;25.50;42.10;;;;;;5033165;28;20467;-77
2023/05/31 11:34:25;;;;;;;1.90;1.17;;;25.70;41.20;;;;;;5032803;28;20459;-75
2023/05/31 11:36:52;;;;;;;2.20;1.33;;;25.60;41.70;;;;;;5035060;28;20436;-76
2023/05/31 11:39:18;;;;;;;2.83;1.20;;;25.80;42.80;;;;;;5036186;28;20451;-76
2023/05/31 11:41:46;;;;;;;2.57;1.27;;;25.60;40.60;;;;;;5035953;28;20893;-77
2023/05/31 11:44:14;;;;;;;2.20;1.37;;;25.80;41.90;;;;;;5036342;28;20447;-74
2023/05/31 11:46:47;;;;;;;3.13;1.43;;;25.60;39.80;;;;;;5036102;28;20479;-73
2023/05/31 11:49:14;;;;;;;2.60;1.30;;;25.30;40.90;;;;;;5036204;28;20432;-74
2023/05/31 11:51:44;;;;;;;2.20;1.10;;;25.40;41.90;;;;;;5036127;28;20887;-75
2023/05/31 11:54:14;;;;;;;2.90;1.10;;;25.80;42.00;;;;;;5035951;28;20830;-75
2023/05/31 11:56:41;;;;;;;2.03;1.23;;;25.90;40.70;;;;;;5035899;28;20451;-78
